Time;durP1;ratioP1;P1;durP2;ratioP2;P2;SDS_P1;SDS_P2;PMS_P1;PMS_P2;Temp;Humidity;BMP_temperature;BMP_pressure;BME280_temperature;BME280_humidity;BME280_pressure;Samples;Min_cycle;Max_cycle;Signal;HPM_P1;HPM_P2
2022/11/04 00:02:01;;;;;;;1.30;1.20;;;;;;;;;;5051647;28;20554;-63
2022/11/04 00:04:27;;;;;;;2.70;1.65;;;;;;;;;;5034617;28;20551;-63
2022/11/04 00:06:55;;;;;;;2.05;1.40;;;;;;;;;;5052196;28;20551;-61
2022/11/04 00:09:23;;;;;;;2.03;1.50;;;;;;;;;;5052036;28;20048;-63
2022/11/04 00:14:35;;;;;;;1.63;1.48;;;;;;;;;;5052122;28;20045;-63
2022/11/04 00:17:22;;;;;;;1.45;1.35;;;;;;;;;;5050790;28;20060;-63
2022/11/04 00:33:24;;;;;;;3.60;1.80;;;;;;;;;;5051979;28;20094;-63
2022/11/04 00:33:45;;;;;;;2.13;1.67;;;;;;;;;;5053025;28;20091;-63
2022/11/04 00:36:11;;;;;;;2.47;1.83;;;;;;;;;;5051932;28;20056;-63
2022/11/04 00:38:38;;;;;;;1.63;1.25;;;;;;;;;;5051851;28;20049;-63
2022/11/04 00:41:24;;;;;;;2.05;1.25;;;;;;;;;;5051950;28;20094;-62
2022/11/04 00:43:58;;;;;;;1.40;1.30;;;;;;;;;;5051213;28;20041;-63
2022/11/04 00:46:24;;;;;;;;;;;;;;;;;;5051760;28;20167;-62
2022/11/04 00:48:51;;;;;;;3.40;1.30;;;;;;;;;;5051970;28;19920;-61
2022/11/04 00:51:18;;;;;;;1.58;1.27;;;;;;;;;;5052528;28;20439;-59
2022/11/04 00:53:44;;;;;;;3.50;1.60;;;;;;;;;;5052125;28;20044;-60
2022/11/04 00:56:11;;;;;;;2.15;1.42;;;;;;;;;;5052565;28;20045;-61
2022/11/04 00:58:37;;;;;;;2.08;1.50;;;;;;;;;;5052400;28;20072;-61
2022/11/04 01:01:10;;;;;;;2.30;1.67;;;;;;;;;;5051307;28;20037;-61
2022/11/04 01:03:37;;;;;;;4.38;1.70;;;;;;;;;;5052250;28;20049;-60
2022/11/04 01:06:04;;;;;;;3.75;1.40;;;;;;;;;;5053460;28;20056;-61
2022/11/04 01:08:31;;;;;;;4.65;1.80;;;;;;;;;;5053072;28;20048;-61
2022/11/04 01:11:00;;;;;;;1.83;1.30;;;;;;;;;;5052337;28;20045;-62
2022/11/04 01:13:26;;;;;;;3.13;1.20;;;;;;;;;;5054651;28;20045;-62
2022/11/04 01:15:53;;;;;;;2.88;1.45;;;;;;;;;;5055707;28;20049;-61
2022/11/04 01:18:19;;;;;;;2.20;1.50;;;;;;;;;;5056189;28;20068;-62
2022/11/04 01:20:45;;;;;;;6.25;1.40;;;;;;;;;;5056891;28;20037;-62
2022/11/04 01:23:12;;;;;;;4.65;1.80;;;;;;;;;;5058257;28;20037;-62
2022/11/04 01:25:39;;;;;;;3.28;1.35;;;;;;;;;;5057173;28;20045;-62
2022/11/04 01:28:05;;;;;;;2.58;1.20;;;;;;;;;;5038867;28;20045;-61
2022/11/04 01:30:32;;;;;;;4.93;1.92;;;;;;;;;;5056551;28;20076;-62
2022/11/04 01:32:59;;;;;;;4.57;1.60;;;;;;;;;;5056541;28;20041;-62
2022/11/04 01:35:25;;;;;;;3.40;1.50;;;;;;;;;;5056963;28;20331;-62
2022/11/04 01:37:51;;;;;;;2.92;1.55;;;;;;;;;;5053890;28;20077;-62
2022/11/04 01:40:18;;;;;;;3.15;1.55;;;;;;;;;;5055334;28;20095;-62
2022/11/04 01:42:44;;;;;;;5.95;1.90;;;;;;;;;;5054469;28;20048;-63
2022/11/04 01:45:15;;;;;;;3.00;1.50;;;;;;;;;;5054785;28;20091;-63
2022/11/04 01:48:01;;;;;;;4.35;1.60;;;;;;;;;;5053606;28;20099;-63
2022/11/04 01:50:29;;;;;;;3.40;1.75;;;;;;;;;;5054639;28;20083;-62
2022/11/04 01:52:58;;;;;;;4.63;1.50;;;;;;;;;;5054102;28;20052;-62
2022/11/04 01:55:27;;;;;;;7.25;1.95;;;;;;;;;;5054462;28;20102;-62
2022/11/04 01:57:55;;;;;;;4.45;1.77;;;;;;;;;;5054545;28;20065;-62
2022/11/04 02:00:21;;;;;;;11.13;1.77;;;;;;;;;;5053544;28;20448;-62
2022/11/04 02:02:57;;;;;;;7.32;1.40;;;;;;;;;;5053923;28;20049;-62
2022/11/04 02:05:23;;;;;;;6.13;1.52;;;;;;;;;;5054472;28;20056;-62
2022/11/04 02:07:53;;;;;;;7.00;1.65;;;;;;;;;;5054412;28;20045;-63
2022/11/04 02:10:21;;;;;;;7.32;1.50;;;;;;;;;;5054413;28;20555;-63
2022/11/04 02:12:50;;;;;;;4.68;1.65;;;;;;;;;;5053927;28;20110;-62
2022/11/04 02:15:25;;;;;;;4.18;1.55;;;;;;;;;;5054292;28;20033;-62
2022/11/04 02:18:00;;;;;;;5.53;1.58;;;;;;;;;;5054536;28;20045;-62
2022/11/04 02:20:47;;;;;;;6.10;1.70;;;;;;;;;;5054314;28;20497;-62
2022/11/04 02:23:34;;;;;;;5.95;1.70;;;;;;;;;;5053246;28;20087;-62
2022/11/04 02:26:15;;;;;;;5.20;1.60;;;;;;;;;;5054205;28;20102;-62
2022/11/04 02:28:42;;;;;;;4.15;1.83;;;;;;;;;;5052936;28;20463;-62
2022/11/04 02:31:15;;;;;;;2.95;1.48;;;;;;;;;;5054549;28;20045;-62
2022/11/04 02:33:42;;;;;;;5.00;2.05;;;;;;;;;;5052959;28;20045;-62
2022/11/04 02:36:12;;;;;;;5.55;1.52;;;;;;;;;;5054235;28;20497;-62
2022/11/04 02:38:44;;;;;;;4.60;1.73;;;;;;;;;;5054384;28;20099;-62
2022/11/04 02:41:18;;;;;;;6.65;1.80;;;;;;;;;;5053375;28;20049;-62
2022/11/04 02:43:52;;;;;;;5.80;1.75;;;;;;;;;;5053919;28;20102;-62
2022/11/04 02:46:21;;;;;;;7.03;1.83;;;;;;;;;;5054575;28;20053;-63
2022/11/04 02:48:52;;;;;;;5.65;1.70;;;;;;;;;;5053262;28;20083;-62
2022/11/04 02:51:19;;;;;;;5.20;1.30;;;;;;;;;;5054030;28;20098;-62
2022/11/04 02:53:51;;;;;;;4.32;1.13;;;;;;;;;;5052638;28;20087;-62
2022/11/04 02:56:19;;;;;;;7.32;1.52;;;;;;;;;;5054067;28;20037;-63
2022/11/04 02:58:50;;;;;;;3.75;1.35;;;;;;;;;;5053568;28;20386;-62
2022/11/04 03:01:17;;;;;;;7.43;1.75;;;;;;;;;;5053973;28;20032;-62
2022/11/04 03:03:46;;;;;;;3.35;1.40;;;;;;;;;;5053398;28;20049;-62
2022/11/04 03:06:16;;;;;;;8.52;1.98;;;;;;;;;;5054613;28;20063;-62
2022/11/04 03:08:47;;;;;;;5.10;1.50;;;;;;;;;;5053828;28;20049;-62
2022/11/04 03:11:15;;;;;;;4.95;1.30;;;;;;;;;;5053416;28;20104;-62
2022/11/04 03:13:50;;;;;;;5.97;1.55;;;;;;;;;;5053622;28;20071;-63
2022/11/04 03:16:18;;;;;;;4.18;1.92;;;;;;;;;;5053652;28;20029;-63
2022/11/04 03:19:03;;;;;;;4.28;1.48;;;;;;;;;;5053752;28;20041;-62
2022/11/04 03:21:32;;;;;;;7.55;1.73;;;;;;;;;;5053278;28;20037;-63
2022/11/04 03:23:59;;;;;;;7.43;1.70;;;;;;;;;;5052781;28;20053;-63
2022/11/04 03:26:25;;;;;;;2.75;1.10;;;;;;;;;;5053118;28;20516;-63
2022/11/04 03:28:52;;;;;;;3.42;1.60;;;;;;;;;;5052896;28;20094;-62
2022/11/04 03:31:24;;;;;;;4.30;1.60;;;;;;;;;;5052708;28;20444;-62
2022/11/04 03:33:52;;;;;;;5.70;1.60;;;;;;;;;;5052128;28;20037;-62
2022/11/04 03:36:20;;;;;;;5.63;1.63;;;;;;;;;;5052258;28;20045;-61
2022/11/04 03:38:47;;;;;;;6.55;2.22;;;;;;;;;;5052587;28;20092;-61
2022/11/04 03:41:17;;;;;;;7.32;2.47;;;;;;;;;;5052648;28;20041;-62
2022/11/04 03:43:43;;;;;;;8.25;1.92;;;;;;;;;;5052228;28;20037;-62
2022/11/04 03:46:10;;;;;;;6.32;2.13;;;;;;;;;;5052506;28;20103;-63
2022/11/04 03:48:36;;;;;;;7.55;2.00;;;;;;;;;;5051215;28;20048;-62
2022/11/04 03:51:03;;;;;;;6.20;2.40;;;;;;;;;;5051263;28;20037;-62
2022/11/04 03:53:30;;;;;;;4.45;2.30;;;;;;;;;;5051577;28;20482;-63
2022/11/04 03:56:07;;;;;;;6.30;1.95;;;;;;;;;;5052315;28;20048;-62
2022/11/04 03:58:49;;;;;;;5.32;2.22;;;;;;;;;;5052525;28;20103;-63
2022/11/04 04:01:24;;;;;;;3.65;1.98;;;;;;;;;;5051048;28;20042;-61
2022/11/04 04:03:54;;;;;;;4.50;2.45;;;;;;;;;;5051833;28;20414;-61
2022/11/04 04:06:25;;;;;;;4.43;2.28;;;;;;;;;;5052206;28;20033;-61
2022/11/04 04:08:56;;;;;;;5.07;2.30;;;;;;;;;;5050701;28;20045;-62
2022/11/04 04:11:25;;;;;;;4.32;2.00;;;;;;;;;;5052069;28;20037;-61
2022/11/04 04:13:52;;;;;;;6.85;2.50;;;;;;;;;;5051367;28;20045;-62
2022/11/04 04:16:36;;;;;;;4.53;2.70;;;;;;;;;;5051997;28;20041;-62
2022/11/04 04:19:09;;;;;;;6.95;2.50;;;;;;;;;;5050828;28;20102;-62
2022/11/04 04:21:38;;;;;;;7.75;2.15;;;;;;;;;;5051788;28;20131;-62
2022/11/04 04:29:42;;;;;;;7.50;2.38;;;;;;;;;;5051753;28;20095;-62
2022/11/04 04:32:08;;;;;;;8.85;2.38;;;;;;;;;;5050003;28;20056;-61
2022/11/04 04:34:35;;;;;;;5.35;2.60;;;;;;;;;;5050564;28;20501;-62
2022/11/04 04:37:10;;;;;;;6.82;2.10;;;;;;;;;;5050582;28;20041;-62
2022/11/04 04:45:24;;;;;;;6.15;2.40;;;;;;;;;;5051934;28;20099;-62
2022/11/04 04:47:50;;;;;;;4.93;1.77;;;;;;;;;;5056161;28;20099;-62
2022/11/04 04:50:18;;;;;;;4.95;2.20;;;;;;;;;;5055925;28;20523;-62
2022/11/04 04:52:49;;;;;;;4.15;1.42;;;;;;;;;;5055223;28;20049;-62
2022/11/04 04:55:15;;;;;;;5.28;2.33;;;;;;;;;;5054527;28;20045;-62
2022/11/04 04:57:42;;;;;;;6.30;1.52;;;;;;;;;;5054577;28;20489;-62
2022/11/04 05:03:06;;;;;;;6.78;1.73;;;;;;;;;;5123012;23;20041;-65
2022/11/04 05:05:33;;;;;;;5.90;2.78;;;;;;;;;;4934092;29;20044;-65
2022/11/04 05:08:03;;;;;;;2.67;1.30;;;;;;;;;;4934060;29;20115;-65
2022/11/04 05:10:29;;;;;;;5.82;1.80;;;;;;;;;;4918425;29;20452;-64
2022/11/04 05:15:41;;;;;;;4.35;1.65;;;;;;;;;;4901325;29;20130;-63
2022/11/04 05:18:07;;;;;;;3.00;1.45;;;;;;;;;;4899841;29;20057;-64
2022/11/04 05:20:37;;;;;;;2.97;1.67;;;;;;;;;;4900886;29;20080;-66
2022/11/04 05:23:03;;;;;;;7.07;1.25;;;;;;;;;;4900647;29;20048;-66
2022/11/04 05:25:29;;;;;;;4.25;1.50;;;;;;;;;;4900552;29;20450;-64
2022/11/04 05:28:00;;;;;;;5.80;1.48;;;;;;;;;;4900233;29;20565;-65
2022/11/04 05:30:27;;;;;;;9.32;1.90;;;;;;;;;;4914915;29;20490;-65
2022/11/04 05:32:53;;;;;;;4.22;1.20;;;;;;;;;;4899884;29;20044;-65
2022/11/04 05:35:25;;;;;;;3.22;1.33;;;;;;;;;;4900887;29;20045;-65
2022/11/04 05:37:53;;;;;;;5.68;2.22;;;;;;;;;;4899707;29;20049;-65
2022/11/04 05:40:20;;;;;;;5.32;1.35;;;;;;;;;;4914555;29;20192;-65
2022/11/04 05:42:46;;;;;;;5.93;1.50;;;;;;;;;;4898412;29;20049;-65
2022/11/04 05:45:12;;;;;;;5.07;1.35;;;;;;;;;;4899980;29;20509;-66
2022/11/04 05:47:39;;;;;;;3.38;1.33;;;;;;;;;;4898901;29;20064;-65
2022/11/04 05:50:06;;;;;;;7.85;1.40;;;;;;;;;;4899873;29;20052;-66
2022/11/04 05:52:32;;;;;;;4.28;1.55;;;;;;;;;;4898320;29;20147;-66
2022/11/04 05:54:58;;;;;;;7.63;1.45;;;;;;;;;;4899970;29;20458;-65
2022/11/04 05:57:25;;;;;;;6.82;1.58;;;;;;;;;;4904423;29;20069;-63
2022/11/04 05:59:51;;;;;;;4.07;1.70;;;;;;;;;;4918857;29;20040;-64
2022/11/04 06:02:18;;;;;;;4.70;1.60;;;;;;;;;;4909400;29;20073;-65
2022/11/04 06:04:44;;;;;;;4.97;2.08;;;;;;;;;;4914821;29;20052;-65
2022/11/04 06:07:12;;;;;;;3.13;1.42;;;;;;;;;;4898797;29;20150;-65
2022/11/04 06:09:38;;;;;;;6.28;2.05;;;;;;;;;;4900069;29;20059;-65
2022/11/04 06:12:05;;;;;;;3.90;2.00;;;;;;;;;;4897986;29;20072;-65
2022/11/04 06:14:31;;;;;;;4.85;1.67;;;;;;;;;;4914344;29;20080;-65
2022/11/04 06:16:59;;;;;;;5.47;1.90;;;;;;;;;;4898476;29;20382;-65
2022/11/04 06:19:26;;;;;;;4.45;1.50;;;;;;;;;;4898601;29;20040;-65
2022/11/04 06:21:52;;;;;;;5.00;1.67;;;;;;;;;;4898890;29;20036;-66
2022/11/04 06:24:19;;;;;;;2.95;1.83;;;;;;;;;;4913632;29;20049;-64
2022/11/04 06:26:45;;;;;;;10.13;2.40;;;;;;;;;;4899214;29;20041;-65
2022/11/04 06:29:11;;;;;;;4.18;1.85;;;;;;;;;;4913677;29;20104;-66
2022/11/04 06:31:38;;;;;;;4.82;2.08;;;;;;;;;;4913190;29;20052;-65
2022/11/04 06:34:04;;;;;;;6.40;1.98;;;;;;;;;;4899125;29;20049;-64
2022/11/04 06:36:31;;;;;;;4.28;1.40;;;;;;;;;;4898924;29;20138;-64
2022/11/04 06:38:57;;;;;;;4.80;1.90;;;;;;;;;;4913765;29;20120;-64
2022/11/04 06:41:30;;;;;;;4.90;1.73;;;;;;;;;;4899001;29;20083;-65
2022/11/04 06:43:56;;;;;;;3.80;1.80;;;;;;;;;;4897606;29;20116;-65
2022/11/04 06:46:29;;;;;;;6.70;1.90;;;;;;;;;;4898986;29;20077;-65
2022/11/04 06:48:56;;;;;;;7.35;1.90;;;;;;;;;;4899124;29;20056;-66
2022/11/04 06:51:22;;;;;;;4.25;1.55;;;;;;;;;;4898833;29;20045;-66
2022/11/04 06:53:49;;;;;;;2.25;1.33;;;;;;;;;;4898277;29;20453;-65
2022/11/04 06:56:15;;;;;;;6.97;1.58;;;;;;;;;;4899367;29;20053;-66
2022/11/04 06:58:42;;;;;;;3.42;1.67;;;;;;;;;;4899141;29;20049;-66
2022/11/04 07:01:08;;;;;;;3.65;1.40;;;;;;;;;;4899088;29;20045;-66
2022/11/04 07:03:47;;;;;;;5.75;1.63;;;;;;;;;;4899222;29;20045;-65
2022/11/04 07:06:13;;;;;;;3.55;1.60;;;;;;;;;;4899146;29;20044;-66
2022/11/04 07:08:40;;;;;;;8.70;1.88;;;;;;;;;;4898267;29;20183;-65
2022/11/04 07:11:06;;;;;;;7.50;1.73;;;;;;;;;;4898482;29;20457;-65
2022/11/04 07:13:33;;;;;;;9.35;1.90;;;;;;;;;;4898800;29;20413;-65
2022/11/04 07:15:59;;;;;;;3.15;1.77;;;;;;;;;;4897679;29;20085;-66
2022/11/04 07:18:25;;;;;;;4.97;2.00;;;;;;;;;;4898901;29;20101;-66
2022/11/04 07:20:52;;;;;;;4.40;1.67;;;;;;;;;;4899067;29;20060;-65
2022/11/04 07:23:18;;;;;;;7.28;1.80;;;;;;;;;;4897354;29;20462;-65
2022/11/04 07:25:45;;;;;;;5.57;1.48;;;;;;;;;;4897834;29;20053;-64
2022/11/04 07:28:11;;;;;;;4.25;1.80;;;;;;;;;;4898820;29;20509;-65
2022/11/04 07:30:38;;;;;;;5.53;1.65;;;;;;;;;;4898621;29;20550;-65
2022/11/04 07:33:05;;;;;;;8.63;2.33;;;;;;;;;;4898378;29;20087;-65
2022/11/04 07:35:31;;;;;;;5.25;2.15;;;;;;;;;;4897817;29;20084;-65
2022/11/04 07:37:58;;;;;;;8.23;2.45;;;;;;;;;;4913459;29;20040;-67
2022/11/04 07:40:24;;;;;;;6.00;1.90;;;;;;;;;;4913092;29;20045;-65
2022/11/04 07:42:51;;;;;;;2.92;1.52;;;;;;;;;;4897611;29;20073;-65
2022/11/04 07:45:17;;;;;;;5.97;1.95;;;;;;;;;;4898098;29;20055;-66
2022/11/04 07:47:44;;;;;;;4.93;1.30;;;;;;;;;;4898229;29;20049;-66
2022/11/04 07:50:10;;;;;;;5.50;1.55;;;;;;;;;;4897749;29;20524;-66
2022/11/04 07:52:37;;;;;;;6.15;1.70;;;;;;;;;;4897197;29;20127;-65
2022/11/04 07:55:04;;;;;;;5.60;1.55;;;;;;;;;;4897473;29;20409;-65
2022/11/04 07:57:30;;;;;;;6.10;1.48;;;;;;;;;;4897540;29;20467;-66
2022/11/04 07:59:56;;;;;;;7.70;1.65;;;;;;;;;;4897697;29;20040;-66
2022/11/04 08:02:23;;;;;;;2.55;1.10;;;;;;;;;;4896710;29;20092;-64
2022/11/04 08:04:56;;;;;;;6.32;2.03;;;;;;;;;;4896347;29;20096;-64
2022/11/04 08:07:23;;;;;;;5.82;1.50;;;;;;;;;;4896074;29;20044;-64
2022/11/04 08:09:49;;;;;;;3.70;1.30;;;;;;;;;;4897380;29;20041;-64
2022/11/04 08:12:16;;;;;;;4.97;1.48;;;;;;;;;;4895519;29;20059;-63
2022/11/04 08:14:42;;;;;;;4.13;1.88;;;;;;;;;;4897547;29;20408;-66
2022/11/04 08:17:09;;;;;;;9.25;1.42;;;;;;;;;;4896043;29;20458;-66
2022/11/04 08:19:35;;;;;;;5.43;1.70;;;;;;;;;;4897860;29;20040;-66
2022/11/04 08:22:01;;;;;;;13.88;2.22;;;;;;;;;;4896551;29;20055;-66
2022/11/04 08:24:28;;;;;;;6.55;1.50;;;;;;;;;;4897333;29;20466;-66
2022/11/04 08:26:54;;;;;;;6.60;1.40;;;;;;;;;;4880729;29;20104;-66
2022/11/04 08:29:21;;;;;;;6.68;2.78;;;;;;;;;;4896082;29;20497;-65
2022/11/04 08:31:48;;;;;;;6.25;1.77;;;;;;;;;;4895253;29;20322;-64
2022/11/04 08:34:17;;;;;;;3.00;1.40;;;;;;;;;;4895915;29;20052;-65
2022/11/04 08:36:44;;;;;;;9.50;1.63;;;;;;;;;;4911799;29;20051;-64
2022/11/04 08:39:11;;;;;;;4.88;2.00;;;;;;;;;;4911845;29;20059;-64
2022/11/04 08:41:39;;;;;;;11.38;2.22;;;;;;;;;;4897752;29;20048;-65
2022/11/04 08:44:07;;;;;;;6.97;2.08;;;;;;;;;;4897305;29;20048;-64
2022/11/04 08:46:35;;;;;;;9.23;2.13;;;;;;;;;;4897986;29;20119;-64
2022/11/04 08:49:02;;;;;;;8.27;2.13;;;;;;;;;;4897586;29;20057;-65
2022/11/04 08:51:37;;;;;;;7.55;1.30;;;;;;;;;;4897361;29;20053;-65
2022/11/04 08:54:04;;;;;;;4.57;1.52;;;;;;;;;;4897129;29;20076;-66
2022/11/04 08:56:32;;;;;;;5.18;1.83;;;;;;;;;;4897370;29;20067;-65
2022/11/04 08:58:58;;;;;;;6.60;1.58;;;;;;;;;;4897589;29;20104;-65
2022/11/04 09:01:25;;;;;;;5.78;1.80;;;;;;;;;;4896660;29;20048;-65
2022/11/04 09:03:59;;;;;;;9.88;2.88;;;;;;;;;;4899617;29;20056;-66
2022/11/04 09:06:27;;;;;;;5.70;1.70;;;;;;;;;;4897610;29;20055;-66
2022/11/04 09:08:56;;;;;;;6.63;1.83;;;;;;;;;;4896743;29;20067;-66
2022/11/04 09:11:22;;;;;;;5.70;1.80;;;;;;;;;;4897742;29;20489;-65
2022/11/04 09:13:49;;;;;;;8.57;1.85;;;;;;;;;;4897395;29;20498;-65
2022/11/04 09:16:15;;;;;;;2.90;1.35;;;;;;;;;;4898993;29;20052;-65
2022/11/04 09:18:41;;;;;;;4.13;1.50;;;;;;;;;;4900496;29;20120;-65
2022/11/04 09:21:09;;;;;;;9.70;2.58;;;;;;;;;;4900230;29;20052;-67
2022/11/04 09:23:35;;;;;;;6.47;1.50;;;;;;;;;;4900435;29;20051;-65
2022/11/04 09:26:03;;;;;;;4.60;1.60;;;;;;;;;;4898358;29;20117;-65
2022/11/04 09:28:30;;;;;;;8.18;1.60;;;;;;;;;;4914952;29;20501;-65
2022/11/04 09:30:56;;;;;;;5.72;1.75;;;;;;;;;;4901186;29;20048;-64
2022/11/04 09:33:22;;;;;;;13.40;1.98;;;;;;;;;;4901656;29;20055;-65
2022/11/04 09:35:56;;;;;;;10.95;1.70;;;;;;;;;;4904069;29;20045;-65
2022/11/04 09:38:23;;;;;;;5.90;1.98;;;;;;;;;;4902447;29;20044;-66
2022/11/04 09:40:50;;;;;;;7.05;1.73;;;;;;;;;;4904828;29;20069;-66
2022/11/04 09:43:27;;;;;;;7.63;1.75;;;;;;;;;;4919523;29;20048;-66
2022/11/04 09:45:54;;;;;;;10.63;1.90;;;;;;;;;;4905868;29;20048;-66
2022/11/04 09:48:25;;;;;;;3.60;1.60;;;;;;;;;;4904632;29;20052;-66
2022/11/04 09:50:54;;;;;;;9.13;2.28;;;;;;;;;;4914710;29;20056;-66
2022/11/04 09:53:44;;;;;;;4.45;1.77;;;;;;;;;;4898434;29;20335;-66
2022/11/04 09:56:21;;;;;;;5.57;1.92;;;;;;;;;;4890161;29;20079;-67
2022/11/04 09:58:49;;;;;;;7.75;2.13;;;;;;;;;;4900683;29;20040;-66
2022/11/04 10:01:21;;;;;;;6.65;2.22;;;;;;;;;;4916740;29;20048;-66
2022/11/04 10:03:54;;;;;;;9.35;2.03;;;;;;;;;;4900261;29;20052;-66
2022/11/04 10:06:24;;;;;;;7.30;2.90;;;;;;;;;;4900300;29;20111;-66
2022/11/04 10:08:50;;;;;;;23.27;8.40;;;;;;;;;;4901135;29;20413;-66
2022/11/04 10:11:16;;;;;;;12.88;8.10;;;;;;;;;;4901161;29;20045;-66
2022/11/04 10:13:49;;;;;;;5.10;1.92;;;;;;;;;;4899976;29;20052;-64
2022/11/04 10:16:16;;;;;;;7.70;2.80;;;;;;;;;;4914226;29;20052;-64
2022/11/04 10:19:01;;;;;;;6.60;2.38;;;;;;;;;;4899796;29;20077;-65
2022/11/04 10:21:42;;;;;;;11.70;5.70;;;;;;;;;;4899398;29;20052;-65
2022/11/04 10:24:12;;;;;;;8.07;3.40;;;;;;;;;;4898228;29;20100;-65
2022/11/04 10:26:38;;;;;;;8.48;3.58;;;;;;;;;;4898154;29;20060;-64
2022/11/04 10:29:09;;;;;;;3.40;1.83;;;;;;;;;;4899193;29;20044;-65
2022/11/04 10:31:37;;;;;;;7.95;2.78;;;;;;;;;;4898710;29;20053;-64
2022/11/04 10:34:11;;;;;;;6.70;1.80;;;;;;;;;;4913470;29;20053;-64
2022/11/04 10:36:38;;;;;;;9.43;1.85;;;;;;;;;;4899159;29;20049;-64
2022/11/04 10:39:12;;;;;;;6.55;1.67;;;;;;;;;;4899007;29;20040;-64
2022/11/04 10:41:39;;;;;;;6.55;2.00;;;;;;;;;;4898800;29;20041;-64
2022/11/04 10:44:11;;;;;;;6.47;2.22;;;;;;;;;;4897590;29;20041;-64
2022/11/04 10:46:45;;;;;;;10.68;2.92;;;;;;;;;;4899265;29;20045;-64
2022/11/04 10:49:30;;;;;;;6.93;2.30;;;;;;;;;;4898980;29;20052;-64
2022/11/04 10:51:57;;;;;;;6.72;2.10;;;;;;;;;;4912709;29;20108;-64
2022/11/04 10:54:25;;;;;;;6.50;1.80;;;;;;;;;;4898899;29;20054;-64
2022/11/04 10:56:52;;;;;;;9.15;4.45;;;;;;;;;;4913099;29;20060;-64
2022/11/04 10:59:23;;;;;;;6.13;2.20;;;;;;;;;;4898758;29;20516;-65
2022/11/04 11:01:50;;;;;;;6.60;3.10;;;;;;;;;;4912481;29;20045;-65
2022/11/04 11:04:26;;;;;;;5.97;2.03;;;;;;;;;;4898736;29;20041;-65
2022/11/04 11:06:54;;;;;;;10.57;2.63;;;;;;;;;;4913022;29;20049;-65
2022/11/04 11:09:27;;;;;;;9.93;3.90;;;;;;;;;;4898477;29;20045;-65
2022/11/04 11:11:59;;;;;;;3.42;2.00;;;;;;;;;;4897899;29;20052;-65
2022/11/04 11:14:29;;;;;;;10.75;3.42;;;;;;;;;;4898305;29;20056;-65
2022/11/04 11:16:56;;;;;;;6.88;2.33;;;;;;;;;;4898394;29;20051;-65
2022/11/04 11:19:24;;;;;;;8.13;3.13;;;;;;;;;;4898321;29;20048;-65
2022/11/04 11:21:55;;;;;;;9.00;3.60;;;;;;;;;;4912522;29;20108;-65
2022/11/04 11:24:22;;;;;;;7.20;2.00;;;;;;;;;;4898299;29;20045;-65
2022/11/04 11:26:50;;;;;;;4.30;1.75;;;;;;;;;;4912497;29;20056;-66
2022/11/04 11:29:22;;;;;;;6.97;1.83;;;;;;;;;;4898081;29;20053;-65
2022/11/04 11:31:50;;;;;;;5.18;2.42;;;;;;;;;;4897551;29;20051;-65
2022/11/04 11:34:22;;;;;;;4.88;2.00;;;;;;;;;;4912748;29;20085;-65
2022/11/04 11:36:49;;;;;;;4.78;1.58;;;;;;;;;;4898328;29;20051;-65
2022/11/04 11:39:17;;;;;;;4.13;1.65;;;;;;;;;;4896775;29;20109;-65
2022/11/04 11:42:07;;;;;;;2.95;1.23;;;;;;;;;;4898457;29;20565;-65
2022/11/04 11:44:43;;;;;;;7.03;1.70;;;;;;;;;;4886230;29;20064;-65
2022/11/04 11:47:35;;;;;;;5.97;1.73;;;;;;;;;;4901435;29;20080;-65
2022/11/04 11:50:15;;;;;;;6.68;1.42;;;;;;;;;;4899932;29;20060;-65
2022/11/04 11:52:43;;;;;;;4.43;1.80;;;;;;;;;;4898864;29;20525;-64
2022/11/04 11:55:19;;;;;;;3.45;2.10;;;;;;;;;;4898140;29;20053;-67
2022/11/04 11:58:01;;;;;;;4.88;2.03;;;;;;;;;;4896926;29;20044;-65
2022/11/04 12:00:54;;;;;;;3.97;1.75;;;;;;;;;;4897155;29;20083;-65
2022/11/04 12:03:44;;;;;;;3.35;1.77;;;;;;;;;;4898450;29;20067;-65
2022/11/04 12:06:33;;;;;;;5.68;1.73;;;;;;;;;;4898894;29;20108;-65
2022/11/04 12:09:29;;;;;;;5.68;2.00;;;;;;;;;;4898897;29;20057;-66
2022/11/04 12:12:19;;;;;;;6.55;2.90;;;;;;;;;;4898680;29;20045;-65
2022/11/04 12:14:54;;;;;;;5.90;2.33;;;;;;;;;;4900401;29;20049;-65
2022/11/04 12:17:31;;;;;;;3.78;1.73;;;;;;;;;;4899495;29;20052;-66
2022/11/04 12:20:04;;;;;;;6.72;2.70;;;;;;;;;;4899307;29;20071;-65
2022/11/04 12:22:40;;;;;;;8.40;2.17;;;;;;;;;;4898677;29;20107;-65
2022/11/04 12:25:09;;;;;;;3.83;1.38;;;;;;;;;;4897707;29;20041;-66
2022/11/04 12:27:54;;;;;;;5.22;1.55;;;;;;;;;;4896586;29;20045;-64
2022/11/04 12:30:26;;;;;;;4.53;1.60;;;;;;;;;;4913546;29;20100;-65
2022/11/04 12:33:13;;;;;;;14.70;9.52;;;;;;;;;;4897540;29;20061;-64
2022/11/04 12:35:49;;;;;;;5.88;2.42;;;;;;;;;;4897783;29;20061;-66
2022/11/04 12:38:18;;;;;;;4.70;4.30;;;;;;;;;;4899160;29;20513;-65
2022/11/04 12:40:51;;;;;;;6.18;2.42;;;;;;;;;;4897427;29;20041;-66
2022/11/04 12:43:56;;;;;;;5.43;2.03;;;;;;;;;;4895980;29;20051;-66
2022/11/04 12:46:26;;;;;;;6.38;2.00;;;;;;;;;;4911810;29;20056;-65
2022/11/04 12:48:58;;;;;;;4.57;1.70;;;;;;;;;;4897705;29;20056;-65
2022/11/04 12:51:39;;;;;;;5.15;1.42;;;;;;;;;;4898546;29;20044;-65
2022/11/04 12:54:06;;;;;;;4.20;1.30;;;;;;;;;;4897507;29;20075;-65
2022/11/04 12:56:37;;;;;;;6.10;2.05;;;;;;;;;;4898143;29;20048;-65
2022/11/04 12:59:22;;;;;;;2.72;1.35;;;;;;;;;;4912662;29;20417;-65
2022/11/04 13:01:54;;;;;;;7.32;1.77;;;;;;;;;;4911754;29;20048;-65
2022/11/04 13:04:28;;;;;;;5.63;2.10;;;;;;;;;;4898261;29;20044;-65
2022/11/04 13:07:01;;;;;;;5.20;1.38;;;;;;;;;;4897219;29;20532;-65
2022/11/04 13:09:27;;;;;;;5.55;1.95;;;;;;;;;;4915809;29;20056;-65
2022/11/04 13:12:00;;;;;;;5.60;2.05;;;;;;;;;;4900501;29;20063;-66
2022/11/04 13:14:28;;;;;;;4.37;1.70;;;;;;;;;;4915672;29;20066;-65
2022/11/04 13:17:06;;;;;;;4.00;2.00;;;;;;;;;;4915346;29;20041;-66
2022/11/04 13:19:47;;;;;;;4.40;1.73;;;;;;;;;;4900976;29;20044;-65
2022/11/04 13:22:19;;;;;;;4.25;1.88;;;;;;;;;;4900190;29;20051;-65
2022/11/04 13:24:51;;;;;;;4.80;2.65;;;;;;;;;;4914954;29;20542;-66
2022/11/04 13:27:20;;;;;;;3.33;1.42;;;;;;;;;;4900667;29;20139;-64
2022/11/04 13:29:47;;;;;;;4.05;1.67;;;;;;;;;;4900488;29;20097;-65
2022/11/04 13:32:25;;;;;;;3.15;1.52;;;;;;;;;;4899410;29;20048;-67
2022/11/04 13:34:57;;;;;;;4.88;1.60;;;;;;;;;;4900643;29;20055;-65
2022/11/04 13:37:27;;;;;;;5.57;2.60;;;;;;;;;;4902048;29;20040;-65
2022/11/04 13:39:58;;;;;;;5.85;2.10;;;;;;;;;;4900805;29;20053;-65
2022/11/04 13:42:27;;;;;;;4.30;1.48;;;;;;;;;;4914465;29;20041;-65
2022/11/04 13:44:57;;;;;;;4.50;2.10;;;;;;;;;;4899834;29;20060;-67
2022/11/04 13:47:31;;;;;;;5.43;2.28;;;;;;;;;;4915287;29;20048;-65
2022/11/04 13:50:00;;;;;;;8.70;3.40;;;;;;;;;;4915959;29;20413;-66
2022/11/04 13:52:30;;;;;;;7.40;3.42;;;;;;;;;;4901104;29;20045;-67
2022/11/04 13:54:58;;;;;;;6.00;1.98;;;;;;;;;;4900678;29;20521;-65
2022/11/04 13:57:46;;;;;;;1.70;0.93;;;;;;;;;;4899822;29;20045;-66
2022/11/04 14:00:13;;;;;;;4.63;1.88;;;;;;;;;;4900859;29;20063;-66
2022/11/04 14:02:44;;;;;;;1.65;1.00;;;;;;;;;;4899623;29;20415;-65
2022/11/04 14:05:22;;;;;;;4.30;1.92;;;;;;;;;;4902063;29;20048;-66
2022/11/04 14:08:15;;;;;;;4.75;1.98;;;;;;;;;;4900130;29;20045;-66
2022/11/04 14:10:47;;;;;;;3.88;1.92;;;;;;;;;;4897588;29;20061;-66
2022/11/04 14:13:26;;;;;;;5.03;2.30;;;;;;;;;;4900286;29;20100;-64
2022/11/04 14:15:58;;;;;;;4.70;2.55;;;;;;;;;;4900016;29;20079;-66
2022/11/04 14:18:26;;;;;;;3.15;1.30;;;;;;;;;;4900353;29;20044;-65
2022/11/04 14:21:18;;;;;;;3.88;1.45;;;;;;;;;;4901055;29;20048;-66
2022/11/04 14:23:48;;;;;;;2.25;1.40;;;;;;;;;;4896894;29;20469;-66
2022/11/04 14:26:16;;;;;;;3.97;1.73;;;;;;;;;;4901153;29;20067;-65
2022/11/04 14:28:48;;;;;;;5.15;2.63;;;;;;;;;;4900838;29;20501;-65
2022/11/04 14:31:33;;;;;;;4.57;2.03;;;;;;;;;;4901087;29;20104;-66
2022/11/04 14:34:00;;;;;;;3.20;2.00;;;;;;;;;;4899822;29;20048;-64
2022/11/04 14:36:29;;;;;;;3.30;1.75;;;;;;;;;;4900778;29;20048;-64
2022/11/04 14:38:55;;;;;;;3.65;2.00;;;;;;;;;;4900586;29;20064;-65
2022/11/04 14:41:28;;;;;;;4.60;2.25;;;;;;;;;;4901212;29;20052;-66
2022/11/04 14:43:56;;;;;;;3.10;1.67;;;;;;;;;;4899335;29;20052;-65
2022/11/04 14:46:25;;;;;;;6.05;1.85;;;;;;;;;;4900791;29;20040;-65
2022/11/04 14:48:54;;;;;;;4.68;2.03;;;;;;;;;;4898783;29;20424;-65
2022/11/04 14:51:24;;;;;;;4.20;2.10;;;;;;;;;;4913852;29;20104;-65
2022/11/04 14:53:52;;;;;;;5.10;2.35;;;;;;;;;;4897781;29;20049;-65
2022/11/04 14:56:20;;;;;;;3.42;1.50;;;;;;;;;;4898166;29;20052;-66
2022/11/04 14:59:00;;;;;;;5.75;3.15;;;;;;;;;;4899256;29;20041;-64
2022/11/04 15:01:31;;;;;;;4.13;2.47;;;;;;;;;;4913489;29;20036;-64
2022/11/04 15:04:12;;;;;;;4.97;2.13;;;;;;;;;;4912983;29;20044;-65
2022/11/04 15:06:40;;;;;;;4.38;2.00;;;;;;;;;;4899572;29;20037;-66
2022/11/04 15:09:24;;;;;;;5.28;3.95;;;;;;;;;;4898365;29;20486;-65
2022/11/04 15:14:43;;;;;;;4.75;2.72;;;;;;;;;;4913590;29;20380;-65
2022/11/04 15:17:16;;;;;;;3.92;2.50;;;;;;;;;;4883004;29;20080;-65
2022/11/04 15:19:46;;;;;;;6.80;3.10;;;;;;;;;;4898588;29;20413;-65
2022/11/04 15:22:13;;;;;;;9.23;3.20;;;;;;;;;;4912733;29;20073;-66
2022/11/04 15:24:41;;;;;;;6.45;2.58;;;;;;;;;;4899110;29;20654;-66
2022/11/04 15:27:12;;;;;;;3.95;2.80;;;;;;;;;;4899178;29;20049;-65
2022/11/04 15:29:38;;;;;;;9.10;4.38;;;;;;;;;;4899791;29;20049;-65
2022/11/04 15:32:05;;;;;;;7.47;4.30;;;;;;;;;;4899301;29;20053;-64
2022/11/04 15:34:32;;;;;;;8.38;3.13;;;;;;;;;;4901062;29;20498;-65
2022/11/04 15:37:04;;;;;;;4.60;2.97;;;;;;;;;;4898788;29;20127;-65